Time;durP1;ratioP1;P1;durP2;ratioP2;P2;SDS_P1;SDS_P2;PMS_P1;PMS_P2;Temp;Humidity;BMP_temperature;BMP_pressure;BME280_temperature;BME280_humidity;BME280_pressure;Samples;Min_cycle;Max_cycle;Signal;HPM_P1;HPM_P2
2023/05/05 00:01:30;;;;;;;4.00;3.70;;;17.80;92.20;;;;;;5069673;28;20208;-77
2023/05/05 00:03:56;;;;;;;5.07;4.00;;;17.80;92.40;;;;;;5069488;28;20420;-77
2023/05/05 00:06:22;;;;;;;3.67;3.40;;;17.70;92.50;;;;;;5069360;28;20423;-77
2023/05/05 00:08:47;;;;;;;5.63;4.77;;;17.80;92.80;;;;;;5068125;28;20234;-77
2023/05/05 00:11:13;;;;;;;4.70;4.20;;;17.70;92.80;;;;;;5069087;28;20204;-77
2023/05/05 00:13:39;;;;;;;4.63;4.07;;;17.70;93.00;;;;;;5069303;28;20584;-77
2023/05/05 00:16:04;;;;;;;5.27;4.37;;;17.70;93.10;;;;;;5069624;28;20188;-77
2023/05/05 00:18:32;;;;;;;4.73;4.20;;;17.70;93.20;;;;;;5069146;28;20181;-77
2023/05/05 00:20:58;;;;;;;4.47;4.07;;;17.70;93.30;;;;;;5069138;28;20184;-77
2023/05/05 00:23:24;;;;;;;4.17;3.77;;;17.60;93.30;;;;;;5069057;28;20427;-78
2023/05/05 00:25:49;;;;;;;4.73;4.20;;;17.60;93.30;;;;;;5069343;28;20268;-77
2023/05/05 00:28:15;;;;;;;4.40;4.10;;;17.60;93.50;;;;;;5069012;28;20180;-77
2023/05/05 00:30:41;;;;;;;4.70;4.30;;;17.60;93.70;;;;;;5069059;28;20209;-77
2023/05/05 00:33:07;;;;;;;5.50;4.23;;;17.60;93.70;;;;;;5068826;28;20200;-77
2023/05/05 00:35:33;;;;;;;4.83;4.33;;;17.60;94.00;;;;;;5069687;28;20215;-77
2023/05/05 00:37:58;;;;;;;5.27;4.20;;;17.60;94.20;;;;;;5069516;28;20255;-77
2023/05/05 00:40:24;;;;;;;6.40;4.40;;;17.60;94.20;;;;;;5069154;28;20177;-77
2023/05/05 00:42:50;;;;;;;4.33;3.93;;;17.50;94.40;;;;;;5051073;28;20199;-77
2023/05/05 00:45:18;;;;;;;6.23;4.30;;;17.50;94.40;;;;;;5069070;28;20208;-77
2023/05/05 00:47:52;;;;;;;4.43;3.87;;;17.50;94.50;;;;;;5069115;28;20422;-78
2023/05/05 00:50:23;;;;;;;4.50;4.00;;;17.50;94.40;;;;;;5072691;28;20505;-77
2023/05/05 00:52:51;;;;;;;4.63;4.17;;;17.50;94.60;;;;;;5074301;28;20473;-77
2023/05/05 00:55:17;;;;;;;6.43;4.60;;;17.50;94.70;;;;;;5074185;28;20419;-77
2023/05/05 00:57:44;;;;;;;5.43;4.30;;;17.50;94.60;;;;;;5074281;28;20407;-78
2023/05/05 01:00:10;;;;;;;4.80;3.63;;;17.50;94.70;;;;;;5075019;28;20522;-78
2023/05/05 01:02:38;;;;;;;6.13;4.40;;;17.50;94.80;;;;;;5074303;28;20485;-78
2023/05/05 01:05:05;;;;;;;4.40;4.00;;;17.60;95.10;;;;;;5074347;28;20435;-78
2023/05/05 01:07:53;;;;;;;4.83;4.40;;;17.60;95.30;;;;;;5072389;28;20418;-76
2023/05/05 01:10:49;;;;;;;6.33;5.00;;;17.60;95.40;;;;;;5072492;28;20427;-77
2023/05/05 01:13:38;;;;;;;4.50;4.10;;;17.50;95.20;;;;;;5065872;28;20444;-77
2023/05/05 01:16:13;;;;;;;4.23;3.93;;;17.50;95.30;;;;;;5072975;28;20410;-77
2023/05/05 01:19:10;;;;;;;4.70;4.27;;;17.50;95.80;;;;;;5054453;28;20441;-77
2023/05/05 01:22:05;;;;;;;4.27;3.87;;;17.50;95.90;;;;;;5054694;28;20458;-77
2023/05/05 01:24:48;;;;;;;4.43;4.13;;;17.40;96.70;;;;;;5070700;28;21326;-77
2023/05/05 01:27:59;;;;;;;7.40;4.60;;;17.40;98.30;;;;;;5072258;28;20429;-77
2023/05/05 01:30:36;;;;;;;4.60;4.20;;;17.30;98.40;;;;;;5071235;28;20477;-77
2023/05/05 01:33:10;;;;;;;4.20;3.90;;;17.30;97.90;;;;;;5072065;28;20919;-77
2023/05/05 01:35:41;;;;;;;4.93;4.13;;;17.30;97.60;;;;;;5054447;28;20472;-77
2023/05/05 01:38:18;;;;;;;4.77;3.80;;;17.30;97.80;;;;;;5071854;28;20969;-77
2023/05/05 01:41:02;;;;;;;4.63;4.23;;;17.30;98.40;;;;;;5071965;28;20423;-77
2023/05/05 01:43:32;;;;;;;4.70;4.30;;;17.30;98.40;;;;;;5071627;28;20456;-77
2023/05/05 01:45:59;;;;;;;4.23;3.90;;;17.30;99.30;;;;;;5072097;28;20800;-77
2023/05/05 01:48:25;;;;;;;5.13;4.73;;;17.30;99.80;;;;;;5071670;28;20974;-77
2023/05/05 01:50:52;;;;;;;4.57;3.90;;;17.30;99.90;;;;;;5071845;28;20490;-77
2023/05/05 01:53:20;;;;;;;4.40;4.10;;;17.20;99.80;;;;;;5053416;28;20435;-77
2023/05/05 01:55:48;;;;;;;5.87;4.80;;;17.20;99.70;;;;;;5071900;28;20423;-77
2023/05/05 01:58:15;;;;;;;4.57;4.17;;;17.30;99.40;;;;;;5071574;28;20418;-77
2023/05/05 02:00:43;;;;;;;10.23;5.77;;;17.30;99.00;;;;;;5053714;28;20420;-77
2023/05/05 02:03:12;;;;;;;4.60;4.27;;;17.30;99.20;;;;;;5070929;28;21042;-77
2023/05/05 02:05:39;;;;;;;5.37;4.87;;;17.30;98.70;;;;;;5054101;28;20435;-78
2023/05/05 02:08:07;;;;;;;6.20;4.60;;;17.30;98.90;;;;;;5071428;28;20415;-77
2023/05/05 02:10:33;;;;;;;4.60;4.20;;;17.30;98.80;;;;;;5071447;28;20415;-77
2023/05/05 02:13:01;;;;;;;5.50;5.00;;;17.30;99.10;;;;;;5071316;28;20439;-77
2023/05/05 02:15:29;;;;;;;5.50;5.00;;;17.30;99.90;;;;;;5071870;28;20422;-77
2023/05/05 02:17:55;;;;;;;5.73;5.23;;;17.30;99.90;;;;;;5071228;28;20895;-77
2023/05/05 02:20:22;;;;;;;5.80;5.40;;;17.30;99.90;;;;;;5071191;28;20412;-77
2023/05/05 02:22:48;;;;;;;11.87;10.30;;;17.30;99.90;;;;;;5071409;28;20514;-77
2023/05/05 02:25:16;;;;;;;16.40;13.40;;;17.30;99.90;;;;;;5071273;28;20494;-77
2023/05/05 02:27:44;;;;;;;25.37;22.37;;;17.30;99.90;;;;;;5071172;28;21330;-77
2023/05/05 02:30:13;;;;;;;30.20;25.10;;;17.30;99.90;;;;;;5071423;28;20495;-77
2023/05/05 02:32:44;;;;;;;25.57;22.93;;;17.30;99.90;;;;;;5071485;28;20455;-77
2023/05/05 02:35:17;;;;;;;27.77;24.00;;;17.20;99.90;;;;;;5071454;28;20447;-77
2023/05/05 02:37:49;;;;;;;25.97;23.30;;;17.20;99.90;;;;;;5071208;28;20434;-77
2023/05/05 02:40:21;;;;;;;29.60;24.97;;;17.30;99.90;;;;;;5070894;28;20442;-77
2023/05/05 02:42:48;;;;;;;31.00;27.47;;;17.20;99.90;;;;;;5053032;28;20435;-77
2023/05/05 02:45:20;;;;;;;32.73;26.60;;;17.20;99.90;;;;;;5052876;28;20414;-77
2023/05/05 02:47:46;;;;;;;27.40;24.50;;;17.20;99.90;;;;;;5052967;28;20486;-77
2023/05/05 02:50:11;;;;;;;29.90;26.67;;;17.20;99.90;;;;;;5070707;28;20975;-77
2023/05/05 02:52:37;;;;;;;24.50;21.90;;;17.20;99.90;;;;;;5071094;28;20216;-77
2023/05/05 02:55:04;;;;;;;19.03;17.03;;;17.10;99.90;;;;;;5052816;28;20653;-77
2023/05/05 02:57:34;;;;;;;17.40;14.83;;;17.10;99.90;;;;;;5071267;28;20733;-77
2023/05/05 03:00:06;;;;;;;14.13;11.30;;;17.00;99.90;;;;;;5053664;28;20406;-77
2023/05/05 03:02:45;;;;;;;12.03;10.03;;;17.00;99.90;;;;;;5053262;28;20439;-76
2023/05/05 03:05:21;;;;;;;10.03;9.03;;;17.00;99.90;;;;;;5071541;28;20435;-77
2023/05/05 03:08:19;;;;;;;10.33;9.33;;;17.10;99.90;;;;;;5070459;28;20449;-77
2023/05/05 03:11:02;;;;;;;9.33;8.40;;;17.00;99.90;;;;;;5052548;28;20443;-77
2023/05/05 03:13:29;;;;;;;8.07;7.37;;;17.10;99.90;;;;;;5068751;28;20419;-77
2023/05/05 03:15:56;;;;;;;9.97;8.97;;;17.10;99.90;;;;;;5070386;28;20441;-77
2023/05/05 03:18:24;;;;;;;9.60;8.67;;;17.10;99.90;;;;;;5069793;28;20465;-77
2023/05/05 03:20:50;;;;;;;8.80;8.00;;;17.10;99.90;;;;;;5070102;28;20532;-77
2023/05/05 03:23:19;;;;;;;9.93;9.03;;;17.00;99.90;;;;;;5069589;28;20970;-77
2023/05/05 03:25:47;;;;;;;9.47;8.57;;;17.10;99.90;;;;;;5070044;28;20430;-77
2023/05/05 03:28:14;;;;;;;10.97;8.77;;;17.10;99.90;;;;;;5051776;28;20432;-77
2023/05/05 03:30:40;;;;;;;10.27;9.27;;;17.10;99.90;;;;;;5051612;28;21065;-77
2023/05/05 03:33:06;;;;;;;11.00;9.40;;;17.10;99.90;;;;;;5069561;28;20431;-77
2023/05/05 03:35:32;;;;;;;10.80;9.70;;;17.10;99.90;;;;;;5069819;28;20776;-77
2023/05/05 03:37:58;;;;;;;11.00;9.53;;;17.10;99.90;;;;;;5069449;28;20399;-77
2023/05/05 03:40:24;;;;;;;9.40;8.40;;;17.10;99.90;;;;;;5069480;28;20227;-77
2023/05/05 03:42:49;;;;;;;10.47;9.47;;;17.10;99.90;;;;;;5069299;28;20279;-77
2023/05/05 03:45:15;;;;;;;11.50;9.50;;;17.10;99.90;;;;;;5069394;28;20185;-77
2023/05/05 03:47:41;;;;;;;11.33;10.17;;;17.10;99.90;;;;;;5069159;28;20193;-77
2023/05/05 03:50:07;;;;;;;10.10;9.10;;;17.10;99.90;;;;;;5059498;28;20185;-77
2023/05/05 03:52:33;;;;;;;11.23;9.70;;;17.10;99.90;;;;;;5069347;28;20243;-77
2023/05/05 03:54:59;;;;;;;10.97;9.80;;;17.10;99.90;;;;;;5069375;28;20412;-77
2023/05/05 03:57:25;;;;;;;11.33;10.13;;;17.10;99.90;;;;;;5069395;28;20181;-77
2023/05/05 03:59:51;;;;;;;13.83;9.87;;;17.00;99.90;;;;;;5069297;28;20264;-77
2023/05/05 04:02:17;;;;;;;10.80;8.87;;;17.00;99.90;;;;;;5069400;28;20601;-77
2023/05/05 04:04:43;;;;;;;10.83;9.83;;;17.00;99.90;;;;;;5068261;28;20431;-77
2023/05/05 04:07:10;;;;;;;9.43;8.53;;;17.10;99.90;;;;;;5069236;28;20268;-77
2023/05/05 04:09:37;;;;;;;11.00;10.00;;;17.00;99.90;;;;;;5069138;28;20796;-77
2023/05/05 04:12:04;;;;;;;12.30;10.33;;;17.00;99.90;;;;;;5069330;28;20558;-77
2023/05/05 04:14:29;;;;;;;11.50;10.40;;;17.00;99.90;;;;;;5068943;28;20494;-76
2023/05/05 04:16:55;;;;;;;12.10;11.00;;;17.00;99.90;;;;;;5069220;28;21057;-77
2023/05/05 04:19:21;;;;;;;12.57;11.33;;;16.90;99.90;;;;;;5069775;28;20531;-77
2023/05/05 04:21:46;;;;;;;12.20;11.00;;;16.90;99.90;;;;;;5071433;28;20219;-79
2023/05/05 04:24:12;;;;;;;10.77;9.73;;;16.90;99.90;;;;;;5071915;28;20208;-78
2023/05/05 04:26:38;;;;;;;11.63;10.50;;;16.90;99.90;;;;;;5072687;28;20173;-79
2023/05/05 04:29:03;;;;;;;10.00;9.10;;;16.90;99.90;;;;;;5067429;28;20868;-78
2023/05/05 04:31:30;;;;;;;11.13;9.87;;;16.90;99.90;;;;;;5062121;28;20243;-78
2023/05/05 04:33:56;;;;;;;12.17;9.90;;;16.90;99.90;;;;;;5071696;28;20181;-78
2023/05/05 04:36:22;;;;;;;10.17;9.07;;;16.90;99.90;;;;;;5054247;28;20419;-78
2023/05/05 04:38:47;;;;;;;11.67;10.10;;;16.90;99.90;;;;;;5059068;28;20184;-78
2023/05/05 04:41:13;;;;;;;11.83;10.60;;;16.90;99.90;;;;;;5070378;28;20185;-78
2023/05/05 04:43:39;;;;;;;10.83;9.83;;;16.90;99.90;;;;;;5070751;28;20200;-78
2023/05/05 04:46:05;;;;;;;11.30;10.20;;;16.80;99.90;;;;;;5071027;28;20176;-78
2023/05/05 04:48:31;;;;;;;11.40;10.30;;;16.80;99.90;;;;;;5071458;28;20395;-78
2023/05/05 04:50:56;;;;;;;12.33;10.40;;;16.70;99.90;;;;;;5071710;28;20250;-78
2023/05/05 04:53:22;;;;;;;12.03;10.83;;;16.70;99.90;;;;;;5068986;28;20274;-78
2023/05/05 04:55:48;;;;;;;14.03;11.60;;;16.60;99.90;;;;;;5052120;28;20173;-78
2023/05/05 04:58:13;;;;;;;12.07;10.97;;;16.60;99.90;;;;;;5069270;28;20256;-77
2023/05/05 05:00:39;;;;;;;12.23;11.10;;;16.60;99.90;;;;;;5070927;28;20542;-78
2023/05/05 05:03:06;;;;;;;13.70;12.50;;;16.60;99.90;;;;;;5070963;28;20281;-78
2023/05/05 05:05:32;;;;;;;14.10;12.10;;;16.60;99.90;;;;;;5071957;28;20197;-78
2023/05/05 05:07:58;;;;;;;14.03;12.00;;;16.60;99.90;;;;;;5071789;28;20514;-78
2023/05/05 05:10:23;;;;;;;15.83;12.63;;;16.60;99.90;;;;;;5072118;28;20238;-78
2023/05/05 05:12:49;;;;;;;12.43;11.13;;;16.60;99.90;;;;;;5072320;28;20217;-78
2023/05/05 05:15:15;;;;;;;14.57;13.20;;;16.70;99.90;;;;;;5071806;28;20176;-78
2023/05/05 05:17:41;;;;;;;12.50;11.40;;;16.70;99.90;;;;;;5053835;28;20634;-77
2023/05/05 05:20:07;;;;;;;14.53;13.13;;;16.70;99.90;;;;;;5068918;28;20174;-78
2023/05/05 05:22:33;;;;;;;13.40;12.10;;;16.70;99.90;;;;;;5072222;28;20439;-78
2023/05/05 05:24:59;;;;;;;16.70;12.10;;;16.70;99.90;;;;;;5059341;28;20449;-78
2023/05/05 05:27:25;;;;;;;14.30;12.03;;;16.80;99.90;;;;;;5071391;28;20403;-78
2023/05/05 05:29:50;;;;;;;16.03;13.70;;;16.80;99.90;;;;;;5071463;28;20337;-78
2023/05/05 05:32:16;;;;;;;14.33;12.83;;;16.80;99.90;;;;;;5071094;28;20292;-78
2023/05/05 05:34:42;;;;;;;16.50;13.20;;;16.90;99.90;;;;;;5071842;28;20235;-78
2023/05/05 05:37:07;;;;;;;15.83;14.27;;;16.90;99.90;;;;;;5072739;28;20169;-78
2023/05/05 05:39:33;;;;;;;15.53;13.93;;;16.90;99.90;;;;;;5073692;28;20268;-77
2023/05/05 05:41:59;;;;;;;14.70;13.30;;;16.90;99.90;;;;;;5065833;28;20205;-78
2023/05/05 05:44:25;;;;;;;16.67;14.93;;;16.90;99.90;;;;;;5074463;28;20226;-77
2023/05/05 05:46:50;;;;;;;16.67;14.93;;;16.90;99.90;;;;;;5071156;28;20426;-77
2023/05/05 05:49:16;;;;;;;16.13;14.43;;;16.90;99.90;;;;;;5071920;28;20187;-77
2023/05/05 05:51:42;;;;;;;17.17;15.47;;;17.00;99.90;;;;;;5072031;28;20205;-77
2023/05/05 05:54:07;;;;;;;17.60;15.80;;;17.00;99.90;;;;;;5054436;28;20169;-77
2023/05/05 05:56:33;;;;;;;16.47;14.77;;;17.00;99.90;;;;;;5053427;28;20256;-77
2023/05/05 05:59:00;;;;;;;17.30;15.30;;;17.00;99.90;;;;;;5071871;28;20799;-77
2023/05/05 06:01:26;;;;;;;20.07;14.70;;;17.00;99.90;;;;;;5071910;28;20197;-77
2023/05/05 06:03:52;;;;;;;15.97;13.73;;;17.10;99.90;;;;;;5071926;28;20414;-77
2023/05/05 06:06:18;;;;;;;15.93;14.33;;;17.00;99.90;;;;;;5072093;28;20416;-77
2023/05/05 06:08:43;;;;;;;17.63;15.17;;;17.10;99.90;;;;;;5072030;28;20465;-77
2023/05/05 06:11:09;;;;;;;16.20;14.60;;;17.20;99.90;;;;;;5071701;28;20231;-77
2023/05/05 06:13:35;;;;;;;17.83;16.07;;;17.20;99.90;;;;;;5071818;28;20180;-77
2023/05/05 06:16:00;;;;;;;17.60;15.80;;;17.30;99.90;;;;;;5071827;28;20711;-77
2023/05/05 06:18:26;;;;;;;16.60;14.87;;;17.30;99.90;;;;;;5071842;28;20664;-77
2023/05/05 06:20:52;;;;;;;16.63;14.87;;;17.40;99.90;;;;;;5072189;28;20173;-77
2023/05/05 06:23:17;;;;;;;18.27;16.40;;;17.40;99.90;;;;;;5071622;28;20224;-77
2023/05/05 06:25:43;;;;;;;16.70;14.90;;;17.50;99.90;;;;;;5071725;28;20173;-77
2023/05/05 06:28:09;;;;;;;15.83;14.20;;;17.60;99.90;;;;;;5071637;28;20177;-77
2023/05/05 06:30:35;;;;;;;16.63;14.63;;;17.70;99.90;;;;;;5071564;28;20169;-77
2023/05/05 06:33:00;;;;;;;16.47;14.87;;;17.80;99.90;;;;;;5071209;28;20866;-77
2023/05/05 06:35:26;;;;;;;16.43;14.60;;;17.80;99.90;;;;;;5071522;28;20166;-77
2023/05/05 06:37:52;;;;;;;14.50;13.00;;;17.90;99.90;;;;;;5071147;28;20173;-77
2023/05/05 06:40:17;;;;;;;14.97;13.47;;;17.90;99.90;;;;;;5071554;28;20188;-77
2023/05/05 06:42:43;;;;;;;14.80;13.20;;;18.00;99.90;;;;;;5071141;28;20710;-77
2023/05/05 06:45:09;;;;;;;12.80;11.60;;;18.00;99.90;;;;;;5071275;28;20259;-78
2023/05/05 06:47:35;;;;;;;15.20;12.80;;;18.10;99.90;;;;;;5070684;28;20185;-77
2023/05/05 06:50:00;;;;;;;16.90;13.47;;;18.10;99.90;;;;;;5053185;28;20838;-77
2023/05/05 06:52:26;;;;;;;14.87;13.47;;;18.20;99.90;;;;;;5070869;28;20208;-77
2023/05/05 06:54:52;;;;;;;13.50;11.77;;;18.30;99.90;;;;;;5071102;28;20197;-77
2023/05/05 06:57:17;;;;;;;14.70;13.27;;;18.30;99.90;;;;;;5052212;28;20239;-77
2023/05/05 06:59:43;;;;;;;16.53;12.60;;;18.50;99.90;;;;;;5070796;28;20181;-77
2023/05/05 07:02:09;;;;;;;14.60;13.10;;;18.50;99.90;;;;;;5071076;28;20197;-77
2023/05/05 07:04:36;;;;;;;13.13;11.83;;;18.60;99.90;;;;;;5070682;28;20196;-77
2023/05/05 07:07:01;;;;;;;13.63;12.00;;;18.60;99.90;;;;;;5070578;28;20173;-77
2023/05/05 07:09:27;;;;;;;12.33;10.97;;;18.60;99.90;;;;;;5070754;28;20412;-77
2023/05/05 07:11:52;;;;;;;12.43;10.93;;;18.70;99.90;;;;;;5070684;28;20641;-77
2023/05/05 07:14:18;;;;;;;16.03;11.53;;;18.70;99.90;;;;;;5070596;28;20173;-77
2023/05/05 07:16:45;;;;;;;13.20;10.90;;;18.70;99.90;;;;;;5070588;28;20168;-77
2023/05/05 07:19:11;;;;;;;11.93;10.10;;;18.80;99.90;;;;;;5070734;28;20169;-77
2023/05/05 07:21:38;;;;;;;9.63;8.70;;;18.80;99.90;;;;;;5052450;28;20443;-77
2023/05/05 07:24:04;;;;;;;10.40;9.20;;;18.90;99.90;;;;;;5070477;28;20197;-77
2023/05/05 07:26:30;;;;;;;9.87;8.97;;;18.90;99.90;;;;;;5070576;28;20418;-77
2023/05/05 07:28:57;;;;;;;11.53;9.63;;;18.80;99.90;;;;;;5070319;28;20498;-77
2023/05/05 07:31:23;;;;;;;10.97;9.90;;;18.90;99.90;;;;;;5070014;28;20451;-77
2023/05/05 07:33:49;;;;;;;11.00;9.90;;;18.90;99.90;;;;;;5070086;28;20411;-77
2023/05/05 07:36:17;;;;;;;12.93;10.43;;;18.90;99.90;;;;;;5070401;28;20464;-77
2023/05/05 07:38:42;;;;;;;13.50;8.60;;;19.00;99.90;;;;;;5070010;28;20173;-77
2023/05/05 07:41:10;;;;;;;16.23;10.70;;;19.00;99.90;;;;;;5070077;28;20472;-77
2023/05/05 07:43:36;;;;;;;11.60;10.50;;;19.00;99.90;;;;;;5052094;28;20539;-77
2023/05/05 07:46:02;;;;;;;12.67;10.37;;;18.90;99.90;;;;;;5052745;28;20456;-77
2023/05/05 07:48:29;;;;;;;11.43;9.27;;;18.90;99.90;;;;;;5069896;28;20406;-77
2023/05/05 07:50:54;;;;;;;11.00;9.10;;;18.90;99.90;;;;;;5069923;28;20528;-77
2023/05/05 07:53:20;;;;;;;11.07;10.07;;;18.90;99.90;;;;;;5069926;28;20423;-77
2023/05/05 07:55:46;;;;;;;10.00;8.90;;;18.90;99.90;;;;;;5052442;28;20764;-77
2023/05/05 07:58:12;;;;;;;9.57;8.57;;;18.90;99.90;;;;;;5051903;28;20177;-78
2023/05/05 08:00:38;;;;;;;10.63;8.27;;;19.00;99.90;;;;;;5069540;28;20277;-77
2023/05/05 08:03:04;;;;;;;9.27;8.37;;;19.00;99.90;;;;;;5070047;28;20196;-77
2023/05/05 08:05:29;;;;;;;9.97;7.37;;;19.00;99.90;;;;;;5053785;28;20429;-77
2023/05/05 08:07:55;;;;;;;6.20;5.60;;;19.00;99.90;;;;;;5072373;28;20184;-77
2023/05/05 08:10:22;;;;;;;7.17;6.47;;;19.00;99.90;;;;;;5068487;28;20168;-77
2023/05/05 08:12:47;;;;;;;11.20;7.50;;;19.00;99.90;;;;;;5091975;28;20211;-77
2023/05/05 08:15:13;;;;;;;6.97;6.27;;;19.10;99.90;;;;;;5090859;28;20402;-77
2023/05/05 08:17:46;;;;;;;7.90;6.93;;;19.10;99.90;;;;;;5089869;28;20275;-78
2023/05/05 08:20:12;;;;;;;8.70;7.80;;;19.10;99.90;;;;;;5071868;28;20183;-77
2023/05/05 08:22:39;;;;;;;7.20;6.50;;;19.10;99.90;;;;;;5090199;28;20430;-77
2023/05/05 08:25:05;;;;;;;7.30;6.60;;;19.20;99.90;;;;;;5077823;28;20419;-77
2023/05/05 08:27:34;;;;;;;8.40;7.60;;;19.10;99.90;;;;;;5069123;28;20552;-77
2023/05/05 08:30:00;;;;;;;7.70;6.90;;;19.10;99.90;;;;;;5051518;28;20496;-77
2023/05/05 08:32:26;;;;;;;8.63;7.37;;;19.10;99.90;;;;;;5069472;28;20733;-78
2023/05/05 08:34:52;;;;;;;8.83;7.93;;;19.20;99.90;;;;;;5051487;28;20443;-78
2023/05/05 08:37:17;;;;;;;8.57;7.77;;;19.30;99.90;;;;;;5034718;28;20184;-78
2023/05/05 08:39:43;;;;;;;8.90;7.93;;;19.30;99.90;;;;;;5069464;28;20165;-77
2023/05/05 08:42:09;;;;;;;7.97;7.17;;;19.30;99.90;;;;;;5069573;28;20213;-77
2023/05/05 08:44:35;;;;;;;8.20;7.10;;;19.40;99.90;;;;;;5051125;28;20415;-78
2023/05/05 08:47:01;;;;;;;8.30;7.50;;;19.40;99.90;;;;;;5051356;28;20674;-77
2023/05/05 08:49:30;;;;;;;8.67;7.53;;;19.40;99.90;;;;;;5069135;28;20174;-77
2023/05/05 08:52:00;;;;;;;7.97;7.20;;;19.50;99.90;;;;;;5051758;28;20582;-78
2023/05/05 08:54:31;;;;;;;8.73;7.90;;;19.50;99.90;;;;;;5069142;28;21091;-77
2023/05/05 08:57:00;;;;;;;7.70;6.70;;;19.50;99.90;;;;;;5067691;28;20435;-77
2023/05/05 08:59:29;;;;;;;11.63;8.90;;;19.60;99.90;;;;;;5051190;28;20489;-77
2023/05/05 09:01:56;;;;;;;12.83;7.37;;;19.70;99.90;;;;;;5069648;28;20975;-78
2023/05/05 09:04:22;;;;;;;7.40;6.70;;;19.70;99.90;;;;;;5050870;28;20435;-77
2023/05/05 09:06:48;;;;;;;8.13;7.37;;;19.70;99.90;;;;;;5034601;28;20419;-78
2023/05/05 09:09:13;;;;;;;8.60;6.30;;;19.80;99.90;;;;;;5072537;28;20173;-77
2023/05/05 09:11:40;;;;;;;9.50;6.10;;;19.80;99.90;;;;;;5091998;28;20213;-77
2023/05/05 09:14:06;;;;;;;7.13;6.43;;;19.90;99.90;;;;;;5092766;28;20177;-78
2023/05/05 09:16:32;;;;;;;7.63;6.80;;;19.90;99.90;;;;;;5075162;28;20467;-77
2023/05/05 09:19:04;;;;;;;6.17;5.57;;;20.00;99.90;;;;;;5093065;28;20176;-77
2023/05/05 09:21:29;;;;;;;6.57;5.47;;;20.10;99.90;;;;;;5075023;28;20208;-77
2023/05/05 09:24:09;;;;;;;8.83;6.57;;;20.20;99.90;;;;;;5090450;28;20406;-77
2023/05/05 09:26:43;;;;;;;4.90;4.40;;;20.30;99.90;;;;;;5038585;28;20407;-78
2023/05/05 09:29:09;;;;;;;7.40;6.23;;;20.40;99.90;;;;;;5073095;28;20793;-78
2023/05/05 09:31:36;;;;;;;7.03;6.30;;;20.50;99.90;;;;;;5055029;28;20463;-78
2023/05/05 09:34:13;;;;;;;8.93;6.33;;;20.60;99.90;;;;;;5054546;28;20238;-78
2023/05/05 09:36:49;;;;;;;6.43;5.60;;;20.60;99.90;;;;;;5073058;28;20409;-78
2023/05/05 09:39:18;;;;;;;5.90;5.30;;;20.80;99.90;;;;;;5072751;28;20481;-77
2023/05/05 09:41:45;;;;;;;6.67;4.77;;;20.80;99.90;;;;;;5072623;28;20427;-78
2023/05/05 09:44:14;;;;;;;6.20;5.60;;;20.80;99.90;;;;;;5054143;28;20422;-78
2023/05/05 09:46:50;;;;;;;6.50;5.30;;;20.90;99.90;;;;;;5072395;28;20416;-78
2023/05/05 09:49:21;;;;;;;4.93;4.53;;;20.90;99.90;;;;;;5071857;28;20415;-77
2023/05/05 09:51:47;;;;;;;5.10;4.60;;;20.90;99.90;;;;;;5071814;28;20446;-78
2023/05/05 09:54:28;;;;;;;7.50;6.00;;;20.90;99.90;;;;;;5071331;28;20414;-77
2023/05/05 09:56:57;;;;;;;8.83;6.67;;;21.00;99.90;;;;;;5070896;28;20404;-77
2023/05/05 09:59:23;;;;;;;5.27;4.80;;;21.00;99.90;;;;;;5071565;28;20766;-78
2023/05/05 10:01:50;;;;;;;6.30;5.80;;;21.00;99.90;;;;;;5070153;28;20455;-78
2023/05/05 10:04:23;;;;;;;6.47;5.63;;;21.00;99.90;;;;;;5061765;28;20514;-78
2023/05/05 10:06:49;;;;;;;6.10;5.50;;;21.10;99.90;;;;;;5053536;28;20421;-78
2023/05/05 10:09:15;;;;;;;6.53;5.80;;;21.10;99.90;;;;;;5053456;28;21148;-78
2023/05/05 10:11:43;;;;;;;5.80;5.30;;;21.20;99.90;;;;;;5053553;28;20685;-77
2023/05/05 10:14:13;;;;;;;5.80;5.20;;;21.20;99.90;;;;;;5070917;28;20212;-78
2023/05/05 10:16:46;;;;;;;6.20;4.20;;;21.30;99.90;;;;;;5071561;28;20399;-78
2023/05/05 10:19:15;;;;;;;5.90;5.37;;;21.40;99.90;;;;;;5052989;28;20412;-77
2023/05/05 10:21:45;;;;;;;5.67;5.17;;;21.40;99.90;;;;;;5052869;28;20442;-78
2023/05/05 10:24:36;;;;;;;5.90;5.30;;;21.50;99.90;;;;;;5070916;28;20977;-77
2023/05/05 10:27:11;;;;;;;7.13;6.43;;;21.60;99.90;;;;;;5053348;28;20975;-78
2023/05/05 10:30:02;;;;;;;10.37;7.80;;;21.70;99.90;;;;;;5070931;28;20411;-78
2023/05/05 10:32:47;;;;;;;4.83;4.43;;;21.60;99.90;;;;;;5070923;28;20499;-78
2023/05/05 10:35:17;;;;;;;4.90;3.37;;;21.60;99.90;;;;;;5052837;28;20526;-77
2023/05/05 10:37:44;;;;;;;4.40;4.00;;;21.70;99.90;;;;;;5070706;28;20443;-78
2023/05/05 10:40:11;;;;;;;5.00;4.10;;;21.80;99.90;;;;;;5052621;28;20412;-77
2023/05/05 10:42:38;;;;;;;7.23;4.70;;;21.90;99.90;;;;;;5052866;28;20431;-78
2023/05/05 10:45:05;;;;;;;5.17;4.37;;;21.90;99.90;;;;;;5053554;28;20408;-78
2023/05/05 10:47:32;;;;;;;4.53;3.63;;;22.00;99.90;;;;;;5055466;28;20525;-77
2023/05/05 10:50:10;;;;;;;5.03;4.37;;;22.10;99.90;;;;;;5073068;28;20407;-77
2023/05/05 10:53:05;;;;;;;4.77;4.37;;;22.10;99.90;;;;;;5075562;28;20459;-77
2023/05/05 10:55:52;;;;;;;5.33;4.47;;;22.10;99.90;;;;;;5074788;28;20786;-77
2023/05/05 10:58:36;;;;;;;4.73;4.23;;;22.10;99.90;;;;;;5082289;28;20407;-76
2023/05/05 11:01:03;;;;;;;4.50;4.10;;;22.10;99.90;;;;;;5052293;28;20844;-77
2023/05/05 11:03:30;;;;;;;4.30;3.90;;;22.10;99.90;;;;;;5070260;28;20454;-77
2023/05/05 11:08:30;;;;;;;4.50;4.10;;;22.10;99.70;;;;;;5070413;28;20472;-78
2023/05/05 11:10:56;;;;;;;4.67;4.27;;;22.10;99.60;;;;;;5052441;28;20423;-78
2023/05/05 11:13:21;;;;;;;5.13;4.73;;;22.00;99.90;;;;;;5070285;28;20193;-78
2023/05/05 11:15:51;;;;;;;5.67;5.17;;;22.00;99.90;;;;;;5052352;28;20443;-77
2023/05/05 11:18:35;;;;;;;4.97;4.47;;;22.00;99.90;;;;;;5070199;28;20173;-76
2023/05/05 11:21:00;;;;;;;8.20;4.70;;;22.00;99.90;;;;;;5070680;28;20593;-78
2023/05/05 11:23:27;;;;;;;4.90;4.40;;;22.10;99.50;;;;;;5070590;28;20963;-78
2023/05/05 11:25:53;;;;;;;5.83;5.00;;;22.20;99.90;;;;;;5070769;28;20170;-78
2023/05/05 11:28:24;;;;;;;5.30;4.80;;;22.20;99.20;;;;;;5070307;28;20423;-78
2023/05/05 11:31:16;;;;;;;5.03;4.60;;;22.10;99.90;;;;;;5070268;28;20780;-78
2023/05/05 11:33:42;;;;;;;4.77;4.37;;;22.10;99.90;;;;;;5061908;28;20422;-77
2023/05/05 11:36:10;;;;;;;6.47;4.97;;;22.10;99.90;;;;;;5070211;28;20935;-79
2023/05/05 11:39:08;;;;;;;4.23;3.93;;;22.00;99.70;;;;;;5070850;28;20173;-78
2023/05/05 11:41:37;;;;;;;5.00;4.60;;;22.00;99.60;;;;;;5052360;28;20789;-77
2023/05/05 11:44:10;;;;;;;4.83;4.40;;;21.90;99.50;;;;;;5070776;28;20404;-79
2023/05/05 11:46:36;;;;;;;5.07;4.67;;;21.70;99.80;;;;;;5070536;28;20427;-77
2023/05/05 11:49:02;;;;;;;5.30;4.90;;;21.60;99.90;;;;;;5053090;28;20416;-76
2023/05/05 11:51:28;;;;;;;4.87;4.47;;;21.60;99.80;;;;;;5069835;28;20502;-76
2023/05/05 11:53:53;;;;;;;5.57;4.93;;;21.60;99.50;;;;;;5070760;28;20443;-77
2023/05/05 11:56:21;;;;;;;4.50;4.20;;;21.40;99.40;;;;;;5052917;28;20173;-77
2023/05/05 11:59:05;;;;;;;6.17;5.70;;;21.40;99.90;;;;;;5070886;28;20572;-78
2023/05/05 12:01:31;;;;;;;5.33;4.80;;;21.40;99.90;;;;;;5052550;28;20439;-78
2023/05/05 12:03:58;;;;;;;6.60;5.40;;;21.30;99.80;;;;;;5070503;28;20415;-78
2023/05/05 12:06:23;;;;;;;7.03;4.83;;;21.30;99.90;;;;;;5070830;28;20422;-77
2023/05/05 12:08:49;;;;;;;4.70;4.40;;;21.20;99.90;;;;;;5070677;28;20412;-78
2023/05/05 12:11:15;;;;;;;6.87;5.33;;;21.10;99.90;;;;;;5070591;28;20201;-77
2023/05/05 12:13:41;;;;;;;4.77;4.37;;;21.10;99.90;;;;;;5070361;28;20180;-78
2023/05/05 12:16:17;;;;;;;5.70;4.30;;;21.00;99.90;;;;;;5053424;28;20169;-78
2023/05/05 12:18:42;;;;;;;5.00;4.60;;;20.90;99.90;;;;;;5071123;28;20497;-79
2023/05/05 12:21:18;;;;;;;4.20;3.80;;;20.90;99.90;;;;;;5070863;28;20880;-76
2023/05/05 12:23:44;;;;;;;4.67;4.27;;;20.80;99.90;;;;;;5071278;28;20161;-77
2023/05/05 12:26:29;;;;;;;5.50;5.00;;;20.80;99.90;;;;;;5071216;28;20774;-77
2023/05/05 12:28:59;;;;;;;7.53;4.70;;;20.60;99.90;;;;;;5053508;28;20454;-78
2023/05/05 12:31:34;;;;;;;6.43;4.50;;;20.50;99.90;;;;;;5070316;28;20463;-77
2023/05/05 12:34:01;;;;;;;7.10;3.50;;;20.40;99.90;;;;;;5053140;28;20483;-78
2023/05/05 12:36:28;;;;;;;2.73;2.40;;;20.20;99.90;;;;;;5053909;28;20407;-76
2023/05/05 12:38:54;;;;;;;2.93;2.20;;;20.00;99.90;;;;;;5071354;28;20408;-77
2023/05/05 12:41:21;;;;;;;2.07;1.83;;;19.80;99.90;;;;;;5071443;28;20445;-77
2023/05/05 12:43:47;;;;;;;5.53;2.20;;;19.60;99.90;;;;;;5071427;28;20184;-77
2023/05/05 12:46:13;;;;;;;2.50;2.30;;;19.60;99.90;;;;;;5056235;28;20423;-78
2023/05/05 12:48:42;;;;;;;2.80;1.90;;;19.50;99.90;;;;;;5075336;28;20915;-78
2023/05/05 12:51:21;;;;;;;2.80;2.13;;;19.40;99.90;;;;;;5057656;28;20443;-77